sensor_id;sensor_type;location;lat;lon;timestamp;P1;durP1;ratioP1;P2;durP2;ratioP2
78368;SDS011;71113;43.092;-89.268;2024-03-08T00:00:56;73.75;;;27.63;;
78368;SDS011;71113;43.092;-89.268;2024-03-08T00:03:22;69.32;;;26.48;;
78368;SDS011;71113;43.092;-89.268;2024-03-08T00:05:48;67.53;;;26.40;;
78368;SDS011;71113;43.092;-89.268;2024-03-08T00:08:14;65.10;;;26.23;;
78368;SDS011;71113;43.092;-89.268;2024-03-08T00:10:40;64.55;;;24.55;;
78368;SDS011;71113;43.092;-89.268;2024-03-08T00:13:06;65.63;;;24.98;;
78368;SDS011;71113;43.092;-89.268;2024-03-08T00:15:32;68.38;;;24.98;;
78368;SDS011;71113;43.092;-89.268;2024-03-08T00:17:58;60.05;;;23.98;;
78368;SDS011;71113;43.092;-89.268;2024-03-08T00:20:24;65.80;;;24.40;;
78368;SDS011;71113;43.092;-89.268;2024-03-08T00:22:50;66.32;;;24.75;;
78368;SDS011;71113;43.092;-89.268;2024-03-08T00:25:16;59.85;;;22.35;;
78368;SDS011;71113;43.092;-89.268;2024-03-08T00:27:43;60.38;;;23.92;;
78368;SDS011;71113;43.092;-89.268;2024-03-08T00:30:09;59.25;;;22.08;;
78368;SDS011;71113;43.092;-89.268;2024-03-08T00:32:38;51.70;;;20.58;;
78368;SDS011;71113;43.092;-89.268;2024-03-08T00:35:04;47.92;;;19.40;;
78368;SDS011;71113;43.092;-89.268;2024-03-08T00:37:33;47.67;;;18.13;;
78368;SDS011;71113;43.092;-89.268;2024-03-08T00:40:02;49.00;;;18.40;;
78368;SDS011;71113;43.092;-89.268;2024-03-08T00:42:28;44.55;;;17.95;;
78368;SDS011;71113;43.092;-89.268;2024-03-08T00:44:54;46.03;;;18.23;;
78368;SDS011;71113;43.092;-89.268;2024-03-08T00:47:20;50.13;;;18.83;;
78368;SDS011;71113;43.092;-89.268;2024-03-08T00:49:46;44.58;;;18.30;;
78368;SDS011;71113;43.092;-89.268;2024-03-08T00:52:12;45.33;;;18.17;;
78368;SDS011;71113;43.092;-89.268;2024-03-08T00:54:38;48.20;;;18.55;;
78368;SDS011;71113;43.092;-89.268;2024-03-08T00:57:04;50.10;;;18.60;;
78368;SDS011;71113;43.092;-89.268;2024-03-08T00:59:31;43.40;;;17.17;;
78368;SDS011;71113;43.092;-89.268;2024-03-08T01:01:58;44.42;;;16.67;;
78368;SDS011;71113;43.092;-89.268;2024-03-08T01:04:27;41.55;;;16.38;;
78368;SDS011;71113;43.092;-89.268;2024-03-08T01:06:57;41.17;;;15.95;;
78368;SDS011;71113;43.092;-89.268;2024-03-08T01:09:23;40.72;;;16.30;;
78368;SDS011;71113;43.092;-89.268;2024-03-08T01:11:50;36.50;;;13.98;;
78368;SDS011;71113;43.092;-89.268;2024-03-08T01:14:16;37.20;;;14.55;;
78368;SDS011;71113;43.092;-89.268;2024-03-08T01:16:42;34.20;;;14.45;;
78368;SDS011;71113;43.092;-89.268;2024-03-08T01:19:08;33.50;;;13.32;;
78368;SDS011;71113;43.092;-89.268;2024-03-08T01:21:34;39.40;;;15.38;;
78368;SDS011;71113;43.092;-89.268;2024-03-08T01:24:00;36.70;;;14.52;;
78368;SDS011;71113;43.092;-89.268;2024-03-08T01:26:26;37.13;;;14.32;;
78368;SDS011;71113;43.092;-89.268;2024-03-08T01:28:52;31.58;;;13.77;;
78368;SDS011;71113;43.092;-89.268;2024-03-08T01:31:18;36.55;;;13.88;;
78368;SDS011;71113;43.092;-89.268;2024-03-08T01:33:44;31.05;;;11.85;;
78368;SDS011;71113;43.092;-89.268;2024-03-08T01:36:10;26.83;;;10.43;;
78368;SDS011;71113;43.092;-89.268;2024-03-08T01:38:40;23.45;;;10.25;;
78368;SDS011;71113;43.092;-89.268;2024-03-08T01:41:07;25.50;;;10.32;;
78368;SDS011;71113;43.092;-89.268;2024-03-08T01:43:34;26.63;;;10.63;;
78368;SDS011;71113;43.092;-89.268;2024-03-08T01:46:00;29.08;;;11.68;;
78368;SDS011;71113;43.092;-89.268;2024-03-08T01:48:28;27.80;;;11.40;;
78368;SDS011;71113;43.092;-89.268;2024-03-08T01:50:55;28.33;;;10.82;;
78368;SDS011;71113;43.092;-89.268;2024-03-08T01:53:22;27.10;;;10.23;;
78368;SDS011;71113;43.092;-89.268;2024-03-08T01:55:49;27.58;;;10.68;;
78368;SDS011;71113;43.092;-89.268;2024-03-08T01:58:19;25.95;;;10.18;;
78368;SDS011;71113;43.092;-89.268;2024-03-08T02:00:47;27.90;;;10.68;;
78368;SDS011;71113;43.092;-89.268;2024-03-08T02:03:17;25.80;;;10.25;;
78368;SDS011;71113;43.092;-89.268;2024-03-08T02:05:43;24.58;;;10.45;;
78368;SDS011;71113;43.092;-89.268;2024-03-08T02:08:09;25.23;;;10.48;;
78368;SDS011;71113;43.092;-89.268;2024-03-08T02:10:41;22.70;;;9.25;;
78368;SDS011;71113;43.092;-89.268;2024-03-08T02:13:09;23.13;;;9.32;;
78368;SDS011;71113;43.092;-89.268;2024-03-08T02:15:54;22.27;;;8.77;;
78368;SDS011;71113;43.092;-89.268;2024-03-08T02:18:24;24.80;;;9.27;;
78368;SDS011;71113;43.092;-89.268;2024-03-08T02:20:54;24.45;;;9.77;;
78368;SDS011;71113;43.092;-89.268;2024-03-08T02:23:27;23.90;;;9.45;;
78368;SDS011;71113;43.092;-89.268;2024-03-08T02:25:54;22.92;;;9.80;;
78368;SDS011;71113;43.092;-89.268;2024-03-08T02:28:21;22.42;;;8.77;;
78368;SDS011;71113;43.092;-89.268;2024-03-08T02:30:48;18.88;;;8.48;;
78368;SDS011;71113;43.092;-89.268;2024-03-08T02:33:24;17.08;;;7.15;;
78368;SDS011;71113;43.092;-89.268;2024-03-08T02:35:51;15.35;;;7.28;;
78368;SDS011;71113;43.092;-89.268;2024-03-08T02:38:18;16.83;;;6.65;;
78368;SDS011;71113;43.092;-89.268;2024-03-08T02:40:46;17.67;;;7.18;;
78368;SDS011;71113;43.092;-89.268;2024-03-08T02:43:13;15.93;;;6.60;;
78368;SDS011;71113;43.092;-89.268;2024-03-08T02:45:43;17.73;;;7.07;;
78368;SDS011;71113;43.092;-89.268;2024-03-08T02:48:12;17.88;;;7.55;;
78368;SDS011;71113;43.092;-89.268;2024-03-08T02:50:40;18.00;;;6.78;;
78368;SDS011;71113;43.092;-89.268;2024-03-08T02:53:08;18.92;;;7.72;;
78368;SDS011;71113;43.092;-89.268;2024-03-08T02:55:35;17.58;;;7.07;;
78368;SDS011;71113;43.092;-89.268;2024-03-08T02:58:04;12.23;;;5.47;;
78368;SDS011;71113;43.092;-89.268;2024-03-08T03:00:30;11.18;;;4.90;;
78368;SDS011;71113;43.092;-89.268;2024-03-08T03:02:56;12.82;;;5.30;;
78368;SDS011;71113;43.092;-89.268;2024-03-08T03:05:23;12.07;;;5.15;;
78368;SDS011;71113;43.092;-89.268;2024-03-08T03:07:49;12.93;;;5.80;;
78368;SDS011;71113;43.092;-89.268;2024-03-08T03:10:16;12.98;;;5.32;;
78368;SDS011;71113;43.092;-89.268;2024-03-08T03:12:43;11.98;;;5.05;;
78368;SDS011;71113;43.092;-89.268;2024-03-08T03:15:11;12.85;;;5.25;;
78368;SDS011;71113;43.092;-89.268;2024-03-08T03:17:38;11.20;;;5.10;;
78368;SDS011;71113;43.092;-89.268;2024-03-08T03:20:08;11.30;;;5.40;;
78368;SDS011;71113;43.092;-89.268;2024-03-08T03:22:36;11.68;;;5.20;;
78368;SDS011;71113;43.092;-89.268;2024-03-08T03:25:02;10.75;;;4.88;;
78368;SDS011;71113;43.092;-89.268;2024-03-08T03:27:32;11.10;;;5.00;;
78368;SDS011;71113;43.092;-89.268;2024-03-08T03:29:58;12.00;;;4.93;;
78368;SDS011;71113;43.092;-89.268;2024-03-08T03:32:44;11.38;;;4.93;;
78368;SDS011;71113;43.092;-89.268;2024-03-08T03:35:12;11.07;;;4.60;;
78368;SDS011;71113;43.092;-89.268;2024-03-08T03:37:40;10.40;;;4.25;;
78368;SDS011;71113;43.092;-89.268;2024-03-08T03:40:08;8.90;;;4.18;;
78368;SDS011;71113;43.092;-89.268;2024-03-08T03:42:34;11.52;;;4.88;;
78368;SDS011;71113;43.092;-89.268;2024-03-08T03:45:04;10.93;;;4.25;;
78368;SDS011;71113;43.092;-89.268;2024-03-08T03:47:31;8.77;;;4.25;;
78368;SDS011;71113;43.092;-89.268;2024-03-08T03:49:57;9.32;;;4.13;;
78368;SDS011;71113;43.092;-89.268;2024-03-08T03:52:27;8.02;;;4.03;;
78368;SDS011;71113;43.092;-89.268;2024-03-08T03:54:53;10.07;;;4.68;;
78368;SDS011;71113;43.092;-89.268;2024-03-08T03:57:19;8.82;;;4.07;;
78368;SDS011;71113;43.092;-89.268;2024-03-08T03:59:48;8.88;;;3.58;;
78368;SDS011;71113;43.092;-89.268;2024-03-08T04:02:15;23.92;;;12.15;;
78368;SDS011;71113;43.092;-89.268;2024-03-08T04:04:41;38.92;;;18.05;;
78368;SDS011;71113;43.092;-89.268;2024-03-08T04:07:07;59.08;;;26.55;;
78368;SDS011;71113;43.092;-89.268;2024-03-08T04:09:35;50.95;;;23.45;;
78368;SDS011;71113;43.092;-89.268;2024-03-08T04:12:01;50.40;;;22.05;;
78368;SDS011;71113;43.092;-89.268;2024-03-08T04:14:27;56.78;;;24.92;;
78368;SDS011;71113;43.092;-89.268;2024-03-08T04:16:53;62.08;;;29.45;;
78368;SDS011;71113;43.092;-89.268;2024-03-08T04:19:19;71.13;;;33.88;;
78368;SDS011;71113;43.092;-89.268;2024-03-08T04:21:45;81.25;;;36.70;;
78368;SDS011;71113;43.092;-89.268;2024-03-08T04:24:12;83.40;;;38.45;;
78368;SDS011;71113;43.092;-89.268;2024-03-08T04:26:38;88.45;;;40.00;;
78368;SDS011;71113;43.092;-89.268;2024-03-08T04:29:04;75.25;;;35.50;;
78368;SDS011;71113;43.092;-89.268;2024-03-08T04:31:30;82.55;;;37.88;;
78368;SDS011;71113;43.092;-89.268;2024-03-08T04:33:56;70.18;;;30.63;;
78368;SDS011;71113;43.092;-89.268;2024-03-08T04:36:22;61.35;;;27.10;;
78368;SDS011;71113;43.092;-89.268;2024-03-08T04:38:50;55.70;;;26.70;;
78368;SDS011;71113;43.092;-89.268;2024-03-08T04:41:16;59.78;;;26.85;;
78368;SDS011;71113;43.092;-89.268;2024-03-08T04:43:43;58.40;;;26.42;;
78368;SDS011;71113;43.092;-89.268;2024-03-08T04:46:09;61.92;;;27.73;;
78368;SDS011;71113;43.092;-89.268;2024-03-08T04:48:35;55.92;;;26.42;;
78368;SDS011;71113;43.092;-89.268;2024-03-08T04:51:02;60.72;;;26.52;;
78368;SDS011;71113;43.092;-89.268;2024-03-08T04:53:29;58.03;;;26.02;;
78368;SDS011;71113;43.092;-89.268;2024-03-08T04:55:57;55.28;;;25.67;;
78368;SDS011;71113;43.092;-89.268;2024-03-08T04:58:23;54.53;;;24.90;;
78368;SDS011;71113;43.092;-89.268;2024-03-08T05:00:49;57.40;;;25.42;;
78368;SDS011;71113;43.092;-89.268;2024-03-08T05:03:15;54.53;;;25.00;;
78368;SDS011;71113;43.092;-89.268;2024-03-08T05:05:41;54.67;;;24.90;;
78368;SDS011;71113;43.092;-89.268;2024-03-08T05:08:07;52.47;;;23.77;;
78368;SDS011;71113;43.092;-89.268;2024-03-08T05:10:33;51.35;;;23.90;;
78368;SDS011;71113;43.092;-89.268;2024-03-08T05:12:59;54.80;;;23.42;;
78368;SDS011;71113;43.092;-89.268;2024-03-08T05:15:25;51.38;;;23.30;;
78368;SDS011;71113;43.092;-89.268;2024-03-08T05:17:51;53.47;;;24.63;;
78368;SDS011;71113;43.092;-89.268;2024-03-08T05:20:17;47.25;;;21.35;;
78368;SDS011;71113;43.092;-89.268;2024-03-08T05:22:44;47.95;;;21.80;;
78368;SDS011;71113;43.092;-89.268;2024-03-08T05:25:11;45.13;;;21.15;;
78368;SDS011;71113;43.092;-89.268;2024-03-08T05:27:38;45.15;;;20.85;;
78368;SDS011;71113;43.092;-89.268;2024-03-08T05:30:04;47.80;;;21.50;;
78368;SDS011;71113;43.092;-89.268;2024-03-08T05:32:30;44.00;;;20.27;;
78368;SDS011;71113;43.092;-89.268;2024-03-08T05:34:57;37.08;;;16.15;;
78368;SDS011;71113;43.092;-89.268;2024-03-08T05:37:23;39.25;;;17.77;;
78368;SDS011;71113;43.092;-89.268;2024-03-08T05:39:49;36.25;;;16.77;;
78368;SDS011;71113;43.092;-89.268;2024-03-08T05:42:14;35.20;;;16.23;;
78368;SDS011;71113;43.092;-89.268;2024-03-08T05:44:40;37.97;;;16.58;;
78368;SDS011;71113;43.092;-89.268;2024-03-08T05:47:06;40.10;;;17.67;;
78368;SDS011;71113;43.092;-89.268;2024-03-08T05:49:32;37.28;;;16.23;;
78368;SDS011;71113;43.092;-89.268;2024-03-08T05:51:59;38.20;;;17.00;;
78368;SDS011;71113;43.092;-89.268;2024-03-08T05:54:25;35.40;;;16.65;;
78368;SDS011;71113;43.092;-89.268;2024-03-08T05:56:52;32.88;;;14.88;;
78368;SDS011;71113;43.092;-89.268;2024-03-08T05:59:19;34.65;;;15.52;;
78368;SDS011;71113;43.092;-89.268;2024-03-08T06:01:45;34.67;;;16.50;;
78368;SDS011;71113;43.092;-89.268;2024-03-08T06:04:12;31.77;;;14.38;;
78368;SDS011;71113;43.092;-89.268;2024-03-08T06:06:39;32.95;;;14.90;;
78368;SDS011;71113;43.092;-89.268;2024-03-08T06:09:05;33.03;;;14.75;;
78368;SDS011;71113;43.092;-89.268;2024-03-08T06:11:36;27.27;;;13.50;;
78368;SDS011;71113;43.092;-89.268;2024-03-08T06:14:03;31.23;;;14.05;;
78368;SDS011;71113;43.092;-89.268;2024-03-08T06:16:29;28.95;;;13.57;;
78368;SDS011;71113;43.092;-89.268;2024-03-08T06:18:58;32.40;;;13.98;;
78368;SDS011;71113;43.092;-89.268;2024-03-08T06:21:24;30.85;;;12.88;;
78368;SDS011;71113;43.092;-89.268;2024-03-08T06:23:53;28.88;;;12.80;;
78368;SDS011;71113;43.092;-89.268;2024-03-08T06:26:23;30.95;;;12.60;;
78368;SDS011;71113;43.092;-89.268;2024-03-08T06:28:50;26.70;;;13.18;;
78368;SDS011;71113;43.092;-89.268;2024-03-08T06:31:16;26.25;;;12.82;;
78368;SDS011;71113;43.092;-89.268;2024-03-08T06:33:42;26.70;;;11.48;;
78368;SDS011;71113;43.092;-89.268;2024-03-08T06:36:08;26.23;;;12.52;;
78368;SDS011;71113;43.092;-89.268;2024-03-08T06:38:36;21.73;;;10.20;;
78368;SDS011;71113;43.092;-89.268;2024-03-08T06:41:08;22.73;;;10.13;;
78368;SDS011;71113;43.092;-89.268;2024-03-08T06:43:40;22.95;;;10.98;;
78368;SDS011;71113;43.092;-89.268;2024-03-08T06:46:07;22.13;;;9.88;;
78368;SDS011;71113;43.092;-89.268;2024-03-08T06:48:33;24.00;;;10.43;;
78368;SDS011;71113;43.092;-89.268;2024-03-08T06:51:00;20.27;;;9.10;;
78368;SDS011;71113;43.092;-89.268;2024-03-08T06:53:26;18.70;;;9.10;;
78368;SDS011;71113;43.092;-89.268;2024-03-08T06:55:52;23.10;;;10.20;;
78368;SDS011;71113;43.092;-89.268;2024-03-08T06:58:18;22.23;;;9.90;;
78368;SDS011;71113;43.092;-89.268;2024-03-08T07:00:44;20.55;;;9.48;;
78368;SDS011;71113;43.092;-89.268;2024-03-08T07:03:10;20.05;;;9.93;;
78368;SDS011;71113;43.092;-89.268;2024-03-08T07:05:37;19.27;;;8.80;;
78368;SDS011;71113;43.092;-89.268;2024-03-08T07:08:05;17.65;;;8.63;;
78368;SDS011;71113;43.092;-89.268;2024-03-08T07:10:31;19.23;;;8.88;;
78368;SDS011;71113;43.092;-89.268;2024-03-08T07:12:57;20.42;;;8.98;;
78368;SDS011;71113;43.092;-89.268;2024-03-08T07:15:23;16.05;;;7.75;;
78368;SDS011;71113;43.092;-89.268;2024-03-08T07:17:49;19.42;;;8.98;;
78368;SDS011;71113;43.092;-89.268;2024-03-08T07:20:17;17.30;;;7.85;;
78368;SDS011;71113;43.092;-89.268;2024-03-08T07:22:47;17.83;;;8.10;;
78368;SDS011;71113;43.092;-89.268;2024-03-08T07:25:14;17.02;;;8.45;;
78368;SDS011;71113;43.092;-89.268;2024-03-08T07:27:56;16.77;;;8.25;;
78368;SDS011;71113;43.092;-89.268;2024-03-08T07:30:23;17.80;;;8.00;;
78368;SDS011;71113;43.092;-89.268;2024-03-08T07:33:08;14.95;;;7.10;;
78368;SDS011;71113;43.092;-89.268;2024-03-08T07:35:38;15.18;;;6.85;;
78368;SDS011;71113;43.092;-89.268;2024-03-08T07:38:05;15.73;;;7.20;;
78368;SDS011;71113;43.092;-89.268;2024-03-08T07:40:35;13.68;;;6.85;;
78368;SDS011;71113;43.092;-89.268;2024-03-08T07:43:05;16.40;;;6.82;;
78368;SDS011;71113;43.092;-89.268;2024-03-08T07:45:34;14.77;;;7.15;;
78368;SDS011;71113;43.092;-89.268;2024-03-08T07:48:01;13.98;;;7.22;;
78368;SDS011;71113;43.092;-89.268;2024-03-08T07:50:28;15.32;;;6.93;;
78368;SDS011;71113;43.092;-89.268;2024-03-08T07:52:54;14.10;;;7.18;;
78368;SDS011;71113;43.092;-89.268;2024-03-08T07:55:20;13.45;;;5.82;;
78368;SDS011;71113;43.092;-89.268;2024-03-08T07:57:49;12.25;;;6.10;;
78368;SDS011;71113;43.092;-89.268;2024-03-08T08:00:15;13.82;;;6.13;;
78368;SDS011;71113;43.092;-89.268;2024-03-08T08:02:46;11.32;;;5.57;;
78368;SDS011;71113;43.092;-89.268;2024-03-08T08:05:13;12.18;;;5.55;;
78368;SDS011;71113;43.092;-89.268;2024-03-08T08:07:40;13.55;;;5.63;;
78368;SDS011;71113;43.092;-89.268;2024-03-08T08:10:08;13.27;;;5.97;;
78368;SDS011;71113;43.092;-89.268;2024-03-08T08:12:40;11.55;;;5.50;;
78368;SDS011;71113;43.092;-89.268;2024-03-08T08:15:07;11.07;;;5.30;;
78368;SDS011;71113;43.092;-89.268;2024-03-08T08:17:33;12.40;;;5.13;;
78368;SDS011;71113;43.092;-89.268;2024-03-08T08:20:00;11.50;;;5.10;;
78368;SDS011;71113;43.092;-89.268;2024-03-08T08:22:26;11.68;;;5.63;;
78368;SDS011;71113;43.092;-89.268;2024-03-08T08:24:52;11.43;;;5.57;;
78368;SDS011;71113;43.092;-89.268;2024-03-08T08:27:18;10.95;;;5.00;;
78368;SDS011;71113;43.092;-89.268;2024-03-08T08:29:44;10.20;;;4.95;;
78368;SDS011;71113;43.092;-89.268;2024-03-08T08:32:11;11.57;;;5.38;;
78368;SDS011;71113;43.092;-89.268;2024-03-08T08:34:37;9.70;;;4.75;;
78368;SDS011;71113;43.092;-89.268;2024-03-08T08:37:03;9.68;;;4.80;;
78368;SDS011;71113;43.092;-89.268;2024-03-08T08:39:29;10.73;;;5.07;;
78368;SDS011;71113;43.092;-89.268;2024-03-08T08:41:54;9.40;;;4.32;;
78368;SDS011;71113;43.092;-89.268;2024-03-08T08:44:20;10.68;;;4.78;;
78368;SDS011;71113;43.092;-89.268;2024-03-08T08:46:46;9.35;;;4.20;;
78368;SDS011;71113;43.092;-89.268;2024-03-08T08:49:12;8.02;;;3.72;;
78368;SDS011;71113;43.092;-89.268;2024-03-08T08:51:48;8.48;;;4.22;;
78368;SDS011;71113;43.092;-89.268;2024-03-08T08:54:17;8.55;;;4.20;;
78368;SDS011;71113;43.092;-89.268;2024-03-08T08:56:44;7.40;;;4.05;;
78368;SDS011;71113;43.092;-89.268;2024-03-08T08:59:10;8.77;;;4.10;;
78368;SDS011;71113;43.092;-89.268;2024-03-08T09:01:39;9.93;;;4.30;;
78368;SDS011;71113;43.092;-89.268;2024-03-08T09:04:06;8.60;;;4.10;;
78368;SDS011;71113;43.092;-89.268;2024-03-08T09:06:32;7.63;;;3.92;;
78368;SDS011;71113;43.092;-89.268;2024-03-08T09:08:58;8.55;;;4.13;;
78368;SDS011;71113;43.092;-89.268;2024-03-08T09:11:24;8.93;;;4.10;;
78368;SDS011;71113;43.092;-89.268;2024-03-08T09:13:50;8.55;;;3.83;;
78368;SDS011;71113;43.092;-89.268;2024-03-08T09:16:17;8.15;;;4.00;;
78368;SDS011;71113;43.092;-89.268;2024-03-08T09:18:42;8.73;;;3.85;;
78368;SDS011;71113;43.092;-89.268;2024-03-08T09:21:09;6.60;;;3.80;;
78368;SDS011;71113;43.092;-89.268;2024-03-08T09:23:35;7.82;;;4.20;;
78368;SDS011;71113;43.092;-89.268;2024-03-08T09:26:02;7.97;;;3.70;;
78368;SDS011;71113;43.092;-89.268;2024-03-08T09:28:29;7.40;;;4.20;;
78368;SDS011;71113;43.092;-89.268;2024-03-08T09:30:55;6.63;;;3.28;;
78368;SDS011;71113;43.092;-89.268;2024-03-08T09:33:21;7.75;;;4.13;;
78368;SDS011;71113;43.092;-89.268;2024-03-08T09:35:47;7.00;;;3.42;;
78368;SDS011;71113;43.092;-89.268;2024-03-08T09:38:14;6.03;;;3.00;;
78368;SDS011;71113;43.092;-89.268;2024-03-08T09:40:43;6.25;;;3.22;;
78368;SDS011;71113;43.092;-89.268;2024-03-08T09:43:09;6.05;;;3.28;;
78368;SDS011;71113;43.092;-89.268;2024-03-08T09:45:38;7.43;;;3.30;;
78368;SDS011;71113;43.092;-89.268;2024-03-08T09:48:10;6.85;;;3.45;;
78368;SDS011;71113;43.092;-89.268;2024-03-08T09:50:42;5.60;;;3.00;;
78368;SDS011;71113;43.092;-89.268;2024-03-08T09:53:08;6.28;;;3.20;;
78368;SDS011;71113;43.092;-89.268;2024-03-08T09:55:37;6.40;;;3.30;;
78368;SDS011;71113;43.092;-89.268;2024-03-08T09:58:07;5.43;;;2.90;;
78368;SDS011;71113;43.092;-89.268;2024-03-08T10:00:53;4.70;;;2.60;;
78368;SDS011;71113;43.092;-89.268;2024-03-08T10:03:22;5.50;;;2.85;;
78368;SDS011;71113;43.092;-89.268;2024-03-08T10:05:48;5.72;;;3.20;;
78368;SDS011;71113;43.092;-89.268;2024-03-08T10:08:15;5.03;;;2.78;;
78368;SDS011;71113;43.092;-89.268;2024-03-08T10:10:41;5.85;;;2.85;;
78368;SDS011;71113;43.092;-89.268;2024-03-08T10:13:08;5.22;;;2.72;;
78368;SDS011;71113;43.092;-89.268;2024-03-08T10:15:39;6.47;;;3.40;;
78368;SDS011;71113;43.092;-89.268;2024-03-08T10:18:05;6.40;;;2.80;;
78368;SDS011;71113;43.092;-89.268;2024-03-08T10:20:32;6.70;;;2.80;;
78368;SDS011;71113;43.092;-89.268;2024-03-08T10:22:59;6.57;;;3.13;;
78368;SDS011;71113;43.092;-89.268;2024-03-08T10:25:28;6.40;;;3.13;;
78368;SDS011;71113;43.092;-89.268;2024-03-08T10:27:55;6.05;;;2.95;;
78368;SDS011;71113;43.092;-89.268;2024-03-08T10:30:21;5.22;;;2.80;;
78368;SDS011;71113;43.092;-89.268;2024-03-08T10:32:48;6.05;;;3.05;;
78368;SDS011;71113;43.092;-89.268;2024-03-08T10:35:14;6.10;;;2.90;;
78368;SDS011;71113;43.092;-89.268;2024-03-08T10:37:52;5.57;;;2.80;;
78368;SDS011;71113;43.092;-89.268;2024-03-08T10:40:25;6.00;;;2.90;;
78368;SDS011;71113;43.092;-89.268;2024-03-08T10:42:56;4.95;;;2.50;;
78368;SDS011;71113;43.092;-89.268;2024-03-08T10:50:41;4.22;;;2.25;;
78368;SDS011;71113;43.092;-89.268;2024-03-08T10:53:13;4.65;;;2.40;;
78368;SDS011;71113;43.092;-89.268;2024-03-08T10:55:40;4.40;;;2.55;;
78368;SDS011;71113;43.092;-89.268;2024-03-08T10:58:06;4.70;;;2.45;;
78368;SDS011;71113;43.092;-89.268;2024-03-08T11:00:33;6.18;;;2.40;;
78368;SDS011;71113;43.092;-89.268;2024-03-08T11:03:00;5.32;;;2.22;;
78368;SDS011;71113;43.092;-89.268;2024-03-08T11:05:36;5.65;;;2.45;;
78368;SDS011;71113;43.092;-89.268;2024-03-08T11:10:47;5.47;;;2.60;;
78368;SDS011;71113;43.092;-89.268;2024-03-08T11:16:02;5.22;;;2.35;;
78368;SDS011;71113;43.092;-89.268;2024-03-08T11:21:08;4.90;;;2.63;;
78368;SDS011;71113;43.092;-89.268;2024-03-08T11:23:37;4.57;;;2.65;;
78368;SDS011;71113;43.092;-89.268;2024-03-08T11:26:21;4.95;;;2.38;;
78368;SDS011;71113;43.092;-89.268;2024-03-08T11:28:49;5.72;;;2.70;;
78368;SDS011;71113;43.092;-89.268;2024-03-08T11:33:46;7.93;;;2.80;;
78368;SDS011;71113;43.092;-89.268;2024-03-08T11:36:21;6.10;;;2.33;;
78368;SDS011;71113;43.092;-89.268;2024-03-08T11:38:48;4.15;;;2.50;;
78368;SDS011;71113;43.092;-89.268;2024-03-08T11:41:20;4.07;;;2.33;;
78368;SDS011;71113;43.092;-89.268;2024-03-08T11:43:50;4.30;;;1.98;;
78368;SDS011;71113;43.092;-89.268;2024-03-08T11:46:30;3.90;;;1.80;;
78368;SDS011;71113;43.092;-89.268;2024-03-08T11:48:56;3.92;;;1.95;;
78368;SDS011;71113;43.092;-89.268;2024-03-08T11:51:22;2.97;;;1.75;;
78368;SDS011;71113;43.092;-89.268;2024-03-08T11:53:49;2.53;;;1.60;;
78368;SDS011;71113;43.092;-89.268;2024-03-08T11:56:15;5.18;;;2.03;;
78368;SDS011;71113;43.092;-89.268;2024-03-08T11:58:42;3.30;;;1.83;;
78368;SDS011;71113;43.092;-89.268;2024-03-08T12:01:17;4.35;;;1.85;;
78368;SDS011;71113;43.092;-89.268;2024-03-08T12:03:43;4.10;;;2.03;;
78368;SDS011;71113;43.092;-89.268;2024-03-08T12:06:10;4.15;;;2.03;;
78368;SDS011;71113;43.092;-89.268;2024-03-08T12:08:36;4.15;;;2.00;;
78368;SDS011;71113;43.092;-89.268;2024-03-08T12:11:05;3.58;;;2.08;;
78368;SDS011;71113;43.092;-89.268;2024-03-08T12:13:35;3.72;;;2.03;;
78368;SDS011;71113;43.092;-89.268;2024-03-08T12:16:04;3.90;;;2.10;;
78368;SDS011;71113;43.092;-89.268;2024-03-08T12:18:33;4.05;;;2.10;;
78368;SDS011;71113;43.092;-89.268;2024-03-08T12:21:04;3.45;;;2.22;;
78368;SDS011;71113;43.092;-89.268;2024-03-08T12:23:34;4.60;;;2.22;;
78368;SDS011;71113;43.092;-89.268;2024-03-08T12:26:13;3.95;;;1.95;;
78368;SDS011;71113;43.092;-89.268;2024-03-08T12:28:41;3.67;;;1.90;;
78368;SDS011;71113;43.092;-89.268;2024-03-08T12:31:13;4.00;;;1.92;;
78368;SDS011;71113;43.092;-89.268;2024-03-08T12:33:52;3.35;;;1.92;;
78368;SDS011;71113;43.092;-89.268;2024-03-08T12:36:19;3.53;;;1.95;;
78368;SDS011;71113;43.092;-89.268;2024-03-08T12:38:49;3.63;;;2.03;;
78368;SDS011;71113;43.092;-89.268;2024-03-08T12:41:15;3.40;;;2.20;;
78368;SDS011;71113;43.092;-89.268;2024-03-08T12:43:44;4.15;;;1.92;;
78368;SDS011;71113;43.092;-89.268;2024-03-08T12:48:45;6.20;;;2.17;;
78368;SDS011;71113;43.092;-89.268;2024-03-08T12:51:15;3.92;;;2.00;;
78368;SDS011;71113;43.092;-89.268;2024-03-08T12:53:43;4.80;;;2.20;;
78368;SDS011;71113;43.092;-89.268;2024-03-08T12:56:11;3.45;;;2.13;;
78368;SDS011;71113;43.092;-89.268;2024-03-08T12:58:37;4.03;;;2.40;;
78368;SDS011;71113;43.092;-89.268;2024-03-08T13:01:04;3.55;;;1.80;;
78368;SDS011;71113;43.092;-89.268;2024-03-08T13:03:33;3.03;;;1.70;;
78368;SDS011;71113;43.092;-89.268;2024-03-08T13:06:04;2.97;;;1.65;;
78368;SDS011;71113;43.092;-89.268;2024-03-08T13:08:36;2.92;;;1.73;;
78368;SDS011;71113;43.092;-89.268;2024-03-08T13:13:30;3.30;;;2.00;;
78368;SDS011;71113;43.092;-89.268;2024-03-08T13:15:56;3.40;;;1.95;;
78368;SDS011;71113;43.092;-89.268;2024-03-08T13:18:25;2.72;;;1.60;;
78368;SDS011;71113;43.092;-89.268;2024-03-08T13:20:51;3.13;;;1.80;;
78368;SDS011;71113;43.092;-89.268;2024-03-08T13:23:17;2.38;;;1.48;;
78368;SDS011;71113;43.092;-89.268;2024-03-08T13:25:43;3.33;;;1.80;;
78368;SDS011;71113;43.092;-89.268;2024-03-08T13:28:09;2.85;;;1.63;;
78368;SDS011;71113;43.092;-89.268;2024-03-08T13:30:36;2.63;;;1.60;;
78368;SDS011;71113;43.092;-89.268;2024-03-08T13:33:02;2.42;;;1.42;;
78368;SDS011;71113;43.092;-89.268;2024-03-08T13:35:32;2.53;;;1.50;;
78368;SDS011;71113;43.092;-89.268;2024-03-08T13:37:59;3.33;;;1.52;;
78368;SDS011;71113;43.092;-89.268;2024-03-08T13:40:30;2.33;;;1.40;;
78368;SDS011;71113;43.092;-89.268;2024-03-08T13:42:56;2.47;;;1.50;;
78368;SDS011;71113;43.092;-89.268;2024-03-08T13:45:23;2.53;;;1.33;;
78368;SDS011;71113;43.092;-89.268;2024-03-08T13:47:49;2.53;;;1.55;;
78368;SDS011;71113;43.092;-89.268;2024-03-08T13:50:19;2.80;;;1.60;;
78368;SDS011;71113;43.092;-89.268;2024-03-08T13:52:49;3.17;;;1.77;;
78368;SDS011;71113;43.092;-89.268;2024-03-08T13:55:19;2.28;;;1.38;;
78368;SDS011;71113;43.092;-89.268;2024-03-08T13:57:52;2.60;;;1.60;;
78368;SDS011;71113;43.092;-89.268;2024-03-08T14:00:18;3.03;;;1.50;;
78368;SDS011;71113;43.092;-89.268;2024-03-08T14:02:48;2.92;;;1.80;;
78368;SDS011;71113;43.092;-89.268;2024-03-08T14:05:14;2.35;;;1.50;;
78368;SDS011;71113;43.092;-89.268;2024-03-08T14:07:41;2.60;;;1.65;;
78368;SDS011;71113;43.092;-89.268;2024-03-08T14:10:07;2.35;;;1.58;;
78368;SDS011;71113;43.092;-89.268;2024-03-08T14:12:35;2.88;;;1.70;;
78368;SDS011;71113;43.092;-89.268;2024-03-08T14:15:03;2.70;;;1.70;;
78368;SDS011;71113;43.092;-89.268;2024-03-08T14:17:32;3.10;;;1.85;;
78368;SDS011;71113;43.092;-89.268;2024-03-08T14:19:58;3.13;;;1.50;;
78368;SDS011;71113;43.092;-89.268;2024-03-08T14:22:24;7.70;;;1.83;;
78368;SDS011;71113;43.092;-89.268;2024-03-08T14:24:50;3.85;;;1.70;;
78368;SDS011;71113;43.092;-89.268;2024-03-08T14:27:17;3.00;;;1.92;;
78368;SDS011;71113;43.092;-89.268;2024-03-08T14:29:43;2.78;;;1.65;;
78368;SDS011;71113;43.092;-89.268;2024-03-08T14:32:10;2.83;;;1.50;;